sensor_id;sensor_type;location;lat;lon;timestamp;P1;durP1;ratioP1;P2;durP2;ratioP2
5630;SDS011;2837;50.990;7.124;2024-02-26T06:01:53;157.20;;;7.40;;
5630;SDS011;2837;50.990;7.124;2024-02-26T06:04:19;157.32;;;6.90;;
5630;SDS011;2837;50.990;7.124;2024-02-26T06:06:44;157.43;;;7.50;;
5630;SDS011;2837;50.990;7.124;2024-02-26T06:09:10;156.73;;;7.10;;
5630;SDS011;2837;50.990;7.124;2024-02-26T06:11:36;157.70;;;7.80;;
5630;SDS011;2837;50.990;7.124;2024-02-26T06:14:02;157.95;;;7.30;;
5630;SDS011;2837;50.990;7.124;2024-02-26T06:16:28;157.25;;;7.30;;
5630;SDS011;2837;50.990;7.124;2024-02-26T06:18:54;159.10;;;8.30;;
5630;SDS011;2837;50.990;7.124;2024-02-26T06:21:21;157.70;;;7.90;;
5630;SDS011;2837;50.990;7.124;2024-02-26T06:23:47;157.30;;;7.70;;
5630;SDS011;2837;50.990;7.124;2024-02-26T06:26:13;157.87;;;7.77;;
5630;SDS011;2837;50.990;7.124;2024-02-26T06:28:38;157.50;;;7.22;;
5630;SDS011;2837;50.990;7.124;2024-02-26T06:31:05;157.50;;;7.30;;
5630;SDS011;2837;50.990;7.124;2024-02-26T06:33:31;157.40;;;7.50;;
5630;SDS011;2837;50.990;7.124;2024-02-26T06:35:57;157.35;;;7.30;;
5630;SDS011;2837;50.990;7.124;2024-02-26T06:38:23;157.73;;;7.70;;
5630;SDS011;2837;50.990;7.124;2024-02-26T06:40:48;157.27;;;7.63;;
5630;SDS011;2837;50.990;7.124;2024-02-26T06:43:14;157.43;;;7.60;;
5630;SDS011;2837;50.990;7.124;2024-02-26T06:45:41;157.50;;;7.70;;
5630;SDS011;2837;50.990;7.124;2024-02-26T06:48:07;157.70;;;7.70;;
5630;SDS011;2837;50.990;7.124;2024-02-26T06:50:33;157.90;;;7.60;;
5630;SDS011;2837;50.990;7.124;2024-02-26T06:52:59;157.80;;;7.60;;
5630;SDS011;2837;50.990;7.124;2024-02-26T06:55:25;158.10;;;8.07;;
5630;SDS011;2837;50.990;7.124;2024-02-26T06:57:51;157.02;;;7.22;;
5630;SDS011;2837;50.990;7.124;2024-02-26T07:00:16;157.70;;;7.78;;
5630;SDS011;2837;50.990;7.124;2024-02-26T07:02:42;157.95;;;7.55;;
5630;SDS011;2837;50.990;7.124;2024-02-26T07:05:08;157.45;;;7.50;;
5630;SDS011;2837;50.990;7.124;2024-02-26T07:07:34;158.40;;;7.80;;
5630;SDS011;2837;50.990;7.124;2024-02-26T07:10:00;157.65;;;7.65;;
5630;SDS011;2837;50.990;7.124;2024-02-26T07:12:28;158.00;;;7.65;;
5630;SDS011;2837;50.990;7.124;2024-02-26T07:14:56;158.40;;;8.10;;
5630;SDS011;2837;50.990;7.124;2024-02-26T07:17:23;158.18;;;7.82;;
5630;SDS011;2837;50.990;7.124;2024-02-26T07:19:49;157.20;;;7.30;;
5630;SDS011;2837;50.990;7.124;2024-02-26T07:22:15;157.65;;;7.60;;
5630;SDS011;2837;50.990;7.124;2024-02-26T07:24:40;157.80;;;7.60;;
5630;SDS011;2837;50.990;7.124;2024-02-26T07:27:06;157.47;;;7.43;;
5630;SDS011;2837;50.990;7.124;2024-02-26T07:29:32;158.00;;;7.40;;
5630;SDS011;2837;50.990;7.124;2024-02-26T07:31:58;158.85;;;8.00;;
5630;SDS011;2837;50.990;7.124;2024-02-26T07:34:24;158.05;;;7.68;;
5630;SDS011;2837;50.990;7.124;2024-02-26T07:36:54;158.10;;;7.90;;
5630;SDS011;2837;50.990;7.124;2024-02-26T07:39:20;157.77;;;8.07;;
5630;SDS011;2837;50.990;7.124;2024-02-26T07:41:45;157.40;;;7.43;;
5630;SDS011;2837;50.990;7.124;2024-02-26T07:44:11;157.50;;;7.57;;
5630;SDS011;2837;50.990;7.124;2024-02-26T07:46:37;157.80;;;7.80;;
5630;SDS011;2837;50.990;7.124;2024-02-26T07:49:03;157.38;;;7.60;;
5630;SDS011;2837;50.990;7.124;2024-02-26T07:51:29;158.80;;;7.80;;
5630;SDS011;2837;50.990;7.124;2024-02-26T07:53:55;157.87;;;7.90;;
5630;SDS011;2837;50.990;7.124;2024-02-26T07:56:21;157.80;;;7.60;;
5630;SDS011;2837;50.990;7.124;2024-02-26T07:58:47;158.00;;;7.90;;
5630;SDS011;2837;50.990;7.124;2024-02-26T08:01:13;158.07;;;8.00;;
5630;SDS011;2837;50.990;7.124;2024-02-26T08:03:42;158.18;;;8.05;;
5630;SDS011;2837;50.990;7.124;2024-02-26T08:06:08;159.00;;;8.03;;
5630;SDS011;2837;50.990;7.124;2024-02-26T08:08:34;158.10;;;7.28;;
5630;SDS011;2837;50.990;7.124;2024-02-26T08:11:00;157.60;;;7.80;;
5630;SDS011;2837;50.990;7.124;2024-02-26T08:13:26;157.85;;;7.60;;
5630;SDS011;2837;50.990;7.124;2024-02-26T08:15:52;159.00;;;8.23;;
5630;SDS011;2837;50.990;7.124;2024-02-26T08:18:18;157.93;;;8.00;;
5630;SDS011;2837;50.990;7.124;2024-02-26T08:20:44;158.65;;;8.20;;
5630;SDS011;2837;50.990;7.124;2024-02-26T08:23:10;158.20;;;7.80;;
5630;SDS011;2837;50.990;7.124;2024-02-26T08:25:36;158.80;;;7.80;;
5630;SDS011;2837;50.990;7.124;2024-02-26T08:28:02;158.00;;;8.00;;
5630;SDS011;2837;50.990;7.124;2024-02-26T08:30:28;158.10;;;7.75;;
5630;SDS011;2837;50.990;7.124;2024-02-26T08:32:54;157.75;;;8.15;;
5630;SDS011;2837;50.990;7.124;2024-02-26T08:35:20;157.90;;;8.20;;
5630;SDS011;2837;50.990;7.124;2024-02-26T08:37:46;157.80;;;7.80;;
5630;SDS011;2837;50.990;7.124;2024-02-26T08:40:13;157.60;;;7.65;;
5630;SDS011;2837;50.990;7.124;2024-02-26T08:42:39;158.57;;;7.50;;
5630;SDS011;2837;50.990;7.124;2024-02-26T08:45:05;159.00;;;8.50;;
5630;SDS011;2837;50.990;7.124;2024-02-26T08:47:31;158.00;;;7.70;;
5630;SDS011;2837;50.990;7.124;2024-02-26T08:49:57;158.50;;;8.10;;
5630;SDS011;2837;50.990;7.124;2024-02-26T08:52:23;159.55;;;8.13;;
5630;SDS011;2837;50.990;7.124;2024-02-26T08:54:49;157.93;;;7.63;;
5630;SDS011;2837;50.990;7.124;2024-02-26T08:57:15;159.30;;;8.75;;
5630;SDS011;2837;50.990;7.124;2024-02-26T08:59:41;158.88;;;8.20;;
5630;SDS011;2837;50.990;7.124;2024-02-26T09:02:07;158.10;;;8.38;;
5630;SDS011;2837;50.990;7.124;2024-02-26T09:04:36;158.30;;;8.10;;
5630;SDS011;2837;50.990;7.124;2024-02-26T09:07:02;157.93;;;7.95;;
5630;SDS011;2837;50.990;7.124;2024-02-26T09:09:28;158.57;;;8.40;;
5630;SDS011;2837;50.990;7.124;2024-02-26T09:11:53;158.00;;;8.20;;
5630;SDS011;2837;50.990;7.124;2024-02-26T09:14:20;158.02;;;7.85;;
5630;SDS011;2837;50.990;7.124;2024-02-26T09:16:46;158.70;;;8.68;;
5630;SDS011;2837;50.990;7.124;2024-02-26T09:19:13;157.90;;;7.80;;
5630;SDS011;2837;50.990;7.124;2024-02-26T09:21:45;158.00;;;7.80;;
5630;SDS011;2837;50.990;7.124;2024-02-26T09:24:12;158.50;;;8.00;;
5630;SDS011;2837;50.990;7.124;2024-02-26T09:26:38;157.80;;;7.25;;
5630;SDS011;2837;50.990;7.124;2024-02-26T09:29:04;158.63;;;8.20;;
5630;SDS011;2837;50.990;7.124;2024-02-26T09:31:31;158.60;;;8.57;;
5630;SDS011;2837;50.990;7.124;2024-02-26T09:33:59;159.00;;;8.00;;
5630;SDS011;2837;50.990;7.124;2024-02-26T09:36:24;158.63;;;8.20;;
5630;SDS011;2837;50.990;7.124;2024-02-26T09:38:50;158.13;;;8.00;;
5630;SDS011;2837;50.990;7.124;2024-02-26T09:41:16;157.80;;;8.03;;
5630;SDS011;2837;50.990;7.124;2024-02-26T09:43:43;158.90;;;8.25;;
5630;SDS011;2837;50.990;7.124;2024-02-26T09:46:12;158.75;;;8.50;;
5630;SDS011;2837;50.990;7.124;2024-02-26T09:48:40;158.60;;;8.40;;
5630;SDS011;2837;50.990;7.124;2024-02-26T09:51:08;158.38;;;8.35;;
5630;SDS011;2837;50.990;7.124;2024-02-26T09:53:36;160.43;;;8.13;;
5630;SDS011;2837;50.990;7.124;2024-02-26T09:56:07;158.05;;;7.80;;
5630;SDS011;2837;50.990;7.124;2024-02-26T09:58:33;158.10;;;7.90;;
5630;SDS011;2837;50.990;7.124;2024-02-26T10:01:00;158.40;;;8.30;;
5630;SDS011;2837;50.990;7.124;2024-02-26T10:03:30;158.50;;;8.40;;
5630;SDS011;2837;50.990;7.124;2024-02-26T10:05:56;158.32;;;8.15;;
5630;SDS011;2837;50.990;7.124;2024-02-26T10:08:23;159.40;;;8.57;;
5630;SDS011;2837;50.990;7.124;2024-02-26T10:10:50;158.77;;;8.53;;
5630;SDS011;2837;50.990;7.124;2024-02-26T10:13:16;158.10;;;8.07;;
5630;SDS011;2837;50.990;7.124;2024-02-26T10:15:42;158.32;;;8.30;;
5630;SDS011;2837;50.990;7.124;2024-02-26T10:18:08;158.60;;;8.40;;
5630;SDS011;2837;50.990;7.124;2024-02-26T10:20:34;158.07;;;8.27;;
5630;SDS011;2837;50.990;7.124;2024-02-26T10:23:03;159.43;;;8.33;;
5630;SDS011;2837;50.990;7.124;2024-02-26T10:25:30;158.63;;;8.20;;
5630;SDS011;2837;50.990;7.124;2024-02-26T10:27:58;159.10;;;8.40;;
5630;SDS011;2837;50.990;7.124;2024-02-26T10:30:27;158.82;;;8.27;;
5630;SDS011;2837;50.990;7.124;2024-02-26T10:32:53;158.00;;;8.27;;
5630;SDS011;2837;50.990;7.124;2024-02-26T10:35:19;158.17;;;8.13;;
5630;SDS011;2837;50.990;7.124;2024-02-26T10:37:49;157.60;;;7.70;;
5630;SDS011;2837;50.990;7.124;2024-02-26T10:40:15;158.40;;;8.35;;
5630;SDS011;2837;50.990;7.124;2024-02-26T10:42:41;157.75;;;7.95;;
5630;SDS011;2837;50.990;7.124;2024-02-26T10:45:08;157.70;;;8.20;;
5630;SDS011;2837;50.990;7.124;2024-02-26T10:47:35;158.23;;;8.40;;
5630;SDS011;2837;50.990;7.124;2024-02-26T10:50:02;157.45;;;8.10;;
5630;SDS011;2837;50.990;7.124;2024-02-26T10:52:30;157.32;;;7.93;;
5630;SDS011;2837;50.990;7.124;2024-02-26T10:54:57;157.73;;;8.25;;
5630;SDS011;2837;50.990;7.124;2024-02-26T10:57:27;157.68;;;8.27;;
5630;SDS011;2837;50.990;7.124;2024-02-26T10:59:57;156.85;;;7.72;;
5630;SDS011;2837;50.990;7.124;2024-02-26T11:02:25;158.15;;;8.85;;
5630;SDS011;2837;50.990;7.124;2024-02-26T11:04:51;157.60;;;8.52;;
5630;SDS011;2837;50.990;7.124;2024-02-26T11:07:17;157.30;;;8.17;;
5630;SDS011;2837;50.990;7.124;2024-02-26T11:09:43;156.73;;;8.00;;
5630;SDS011;2837;50.990;7.124;2024-02-26T11:12:16;157.80;;;8.50;;
5630;SDS011;2837;50.990;7.124;2024-02-26T11:14:43;157.73;;;8.20;;
5630;SDS011;2837;50.990;7.124;2024-02-26T11:17:10;156.80;;;8.27;;
5630;SDS011;2837;50.990;7.124;2024-02-26T11:19:37;157.38;;;8.55;;
5630;SDS011;2837;50.990;7.124;2024-02-26T11:22:04;157.07;;;8.20;;
5630;SDS011;2837;50.990;7.124;2024-02-26T11:24:30;158.32;;;8.27;;
5630;SDS011;2837;50.990;7.124;2024-02-26T11:26:58;156.77;;;8.30;;
5630;SDS011;2837;50.990;7.124;2024-02-26T11:29:25;157.00;;;8.43;;
5630;SDS011;2837;50.990;7.124;2024-02-26T11:31:58;156.60;;;7.97;;
5630;SDS011;2837;50.990;7.124;2024-02-26T11:34:25;156.50;;;8.10;;
5630;SDS011;2837;50.990;7.124;2024-02-26T11:36:51;156.13;;;7.50;;
5630;SDS011;2837;50.990;7.124;2024-02-26T11:39:17;156.60;;;8.30;;
5630;SDS011;2837;50.990;7.124;2024-02-26T11:41:43;157.20;;;8.60;;
5630;SDS011;2837;50.990;7.124;2024-02-26T11:44:09;157.70;;;8.63;;
5630;SDS011;2837;50.990;7.124;2024-02-26T11:46:39;157.13;;;8.53;;
5630;SDS011;2837;50.990;7.124;2024-02-26T11:51:51;156.43;;;7.90;;
5630;SDS011;2837;50.990;7.124;2024-02-26T11:57:30;156.65;;;8.05;;
5630;SDS011;2837;50.990;7.124;2024-02-26T12:02:38;156.40;;;8.30;;
5630;SDS011;2837;50.990;7.124;2024-02-26T12:05:16;156.50;;;8.20;;
5630;SDS011;2837;50.990;7.124;2024-02-26T12:08:09;157.35;;;8.20;;
5630;SDS011;2837;50.990;7.124;2024-02-26T12:10:39;157.38;;;9.05;;
5630;SDS011;2837;50.990;7.124;2024-02-26T12:13:09;156.70;;;8.10;;
5630;SDS011;2837;50.990;7.124;2024-02-26T12:15:38;156.17;;;8.27;;
5630;SDS011;2837;50.990;7.124;2024-02-26T12:18:05;156.23;;;8.13;;
5630;SDS011;2837;50.990;7.124;2024-02-26T12:20:33;157.05;;;8.60;;
5630;SDS011;2837;50.990;7.124;2024-02-26T12:23:00;156.98;;;8.80;;
5630;SDS011;2837;50.990;7.124;2024-02-26T12:25:28;156.30;;;8.20;;
5630;SDS011;2837;50.990;7.124;2024-02-26T12:27:54;155.83;;;8.27;;
5630;SDS011;2837;50.990;7.124;2024-02-26T12:30:21;156.43;;;8.98;;
5630;SDS011;2837;50.990;7.124;2024-02-26T12:32:47;157.18;;;8.32;;
5630;SDS011;2837;50.990;7.124;2024-02-26T12:35:14;155.82;;;8.15;;
5630;SDS011;2837;50.990;7.124;2024-02-26T12:37:41;155.63;;;8.30;;
5630;SDS011;2837;50.990;7.124;2024-02-26T12:40:10;156.30;;;8.40;;
5630;SDS011;2837;50.990;7.124;2024-02-26T12:42:37;156.70;;;8.73;;
5630;SDS011;2837;50.990;7.124;2024-02-26T12:45:06;156.30;;;8.55;;
5630;SDS011;2837;50.990;7.124;2024-02-26T12:47:41;155.20;;;7.88;;
5630;SDS011;2837;50.990;7.124;2024-02-26T12:50:08;156.07;;;8.55;;
5630;SDS011;2837;50.990;7.124;2024-02-26T12:52:35;157.07;;;8.90;;
5630;SDS011;2837;50.990;7.124;2024-02-26T12:55:01;156.35;;;8.60;;
5630;SDS011;2837;50.990;7.124;2024-02-26T12:57:28;156.25;;;8.63;;
5630;SDS011;2837;50.990;7.124;2024-02-26T12:59:56;156.60;;;9.00;;
5630;SDS011;2837;50.990;7.124;2024-02-26T13:02:22;157.63;;;8.98;;
5630;SDS011;2837;50.990;7.124;2024-02-26T13:04:48;156.60;;;8.38;;
5630;SDS011;2837;50.990;7.124;2024-02-26T13:07:14;157.63;;;8.65;;
5630;SDS011;2837;50.990;7.124;2024-02-26T13:09:40;156.90;;;8.80;;
5630;SDS011;2837;50.990;7.124;2024-02-26T13:12:07;156.43;;;8.52;;
5630;SDS011;2837;50.990;7.124;2024-02-26T13:14:33;156.18;;;8.57;;
5630;SDS011;2837;50.990;7.124;2024-02-26T13:16:59;158.15;;;8.70;;
5630;SDS011;2837;50.990;7.124;2024-02-26T13:19:26;156.80;;;9.03;;
5630;SDS011;2837;50.990;7.124;2024-02-26T13:21:55;157.50;;;8.88;;
5630;SDS011;2837;50.990;7.124;2024-02-26T13:24:21;156.52;;;8.63;;
5630;SDS011;2837;50.990;7.124;2024-02-26T13:26:56;157.70;;;9.30;;
5630;SDS011;2837;50.990;7.124;2024-02-26T13:29:22;156.23;;;8.60;;
5630;SDS011;2837;50.990;7.124;2024-02-26T13:31:53;156.40;;;8.88;;
5630;SDS011;2837;50.990;7.124;2024-02-26T13:34:28;156.10;;;8.45;;
5630;SDS011;2837;50.990;7.124;2024-02-26T13:36:55;156.55;;;9.15;;
5630;SDS011;2837;50.990;7.124;2024-02-26T13:39:25;156.85;;;9.25;;
5630;SDS011;2837;50.990;7.124;2024-02-26T13:41:52;157.95;;;9.65;;
5630;SDS011;2837;50.990;7.124;2024-02-26T13:44:21;156.93;;;9.00;;
5630;SDS011;2837;50.990;7.124;2024-02-26T13:46:47;157.75;;;9.60;;
5630;SDS011;2837;50.990;7.124;2024-02-26T13:49:14;157.45;;;9.80;;
5630;SDS011;2837;50.990;7.124;2024-02-26T13:51:40;158.27;;;9.30;;
5630;SDS011;2837;50.990;7.124;2024-02-26T13:54:06;156.30;;;8.77;;
5630;SDS011;2837;50.990;7.124;2024-02-26T13:56:32;157.75;;;9.30;;
5630;SDS011;2837;50.990;7.124;2024-02-26T13:58:58;156.60;;;8.80;;
5630;SDS011;2837;50.990;7.124;2024-02-26T14:01:24;157.35;;;8.65;;
5630;SDS011;2837;50.990;7.124;2024-02-26T14:03:51;157.57;;;9.50;;
5630;SDS011;2837;50.990;7.124;2024-02-26T14:06:20;157.60;;;9.65;;
5630;SDS011;2837;50.990;7.124;2024-02-26T14:08:46;156.80;;;8.90;;
5630;SDS011;2837;50.990;7.124;2024-02-26T14:11:11;158.70;;;9.23;;
5630;SDS011;2837;50.990;7.124;2024-02-26T14:13:37;157.32;;;9.30;;
5630;SDS011;2837;50.990;7.124;2024-02-26T14:16:03;157.68;;;9.60;;
5630;SDS011;2837;50.990;7.124;2024-02-26T14:18:29;158.27;;;9.75;;
5630;SDS011;2837;50.990;7.124;2024-02-26T14:20:55;158.27;;;9.20;;
5630;SDS011;2837;50.990;7.124;2024-02-26T14:23:21;158.35;;;9.60;;
5630;SDS011;2837;50.990;7.124;2024-02-26T14:25:47;157.52;;;9.20;;
5630;SDS011;2837;50.990;7.124;2024-02-26T14:28:13;157.63;;;8.70;;
5630;SDS011;2837;50.990;7.124;2024-02-26T14:30:39;157.40;;;8.90;;
5630;SDS011;2837;50.990;7.124;2024-02-26T14:33:05;157.02;;;8.07;;
5630;SDS011;2837;50.990;7.124;2024-02-26T14:35:31;158.43;;;9.83;;
5630;SDS011;2837;50.990;7.124;2024-02-26T14:37:59;158.10;;;9.82;;
5630;SDS011;2837;50.990;7.124;2024-02-26T14:40:26;158.38;;;9.50;;
5630;SDS011;2837;50.990;7.124;2024-02-26T14:42:52;157.60;;;9.80;;
5630;SDS011;2837;50.990;7.124;2024-02-26T14:45:18;159.02;;;10.18;;
5630;SDS011;2837;50.990;7.124;2024-02-26T14:47:44;159.00;;;9.77;;
5630;SDS011;2837;50.990;7.124;2024-02-26T14:50:10;158.13;;;10.20;;
5630;SDS011;2837;50.990;7.124;2024-02-26T14:52:36;158.43;;;9.93;;
5630;SDS011;2837;50.990;7.124;2024-02-26T14:55:02;158.57;;;10.50;;
5630;SDS011;2837;50.990;7.124;2024-02-26T14:57:28;158.70;;;10.40;;
5630;SDS011;2837;50.990;7.124;2024-02-26T14:59:54;160.70;;;10.80;;
5630;SDS011;2837;50.990;7.124;2024-02-26T15:02:20;159.13;;;10.70;;
5630;SDS011;2837;50.990;7.124;2024-02-26T15:04:45;159.05;;;10.27;;
5630;SDS011;2837;50.990;7.124;2024-02-26T15:07:11;157.75;;;9.32;;
5630;SDS011;2837;50.990;7.124;2024-02-26T15:09:37;162.95;;;10.27;;
5630;SDS011;2837;50.990;7.124;2024-02-26T15:12:05;158.98;;;10.40;;
5630;SDS011;2837;50.990;7.124;2024-02-26T15:14:33;158.38;;;10.23;;
5630;SDS011;2837;50.990;7.124;2024-02-26T15:17:00;158.20;;;9.82;;
5630;SDS011;2837;50.990;7.124;2024-02-26T15:19:25;159.13;;;10.85;;
5630;SDS011;2837;50.990;7.124;2024-02-26T15:21:51;159.88;;;10.50;;
5630;SDS011;2837;50.990;7.124;2024-02-26T15:24:17;158.00;;;9.98;;
5630;SDS011;2837;50.990;7.124;2024-02-26T15:26:43;160.02;;;11.30;;
5630;SDS011;2837;50.990;7.124;2024-02-26T15:29:10;159.80;;;11.20;;
5630;SDS011;2837;50.990;7.124;2024-02-26T15:31:38;158.97;;;10.53;;
5630;SDS011;2837;50.990;7.124;2024-02-26T15:34:04;159.10;;;10.75;;
5630;SDS011;2837;50.990;7.124;2024-02-26T15:36:30;158.90;;;10.52;;
5630;SDS011;2837;50.990;7.124;2024-02-26T15:38:56;159.43;;;10.95;;
5630;SDS011;2837;50.990;7.124;2024-02-26T15:41:25;159.67;;;10.67;;
5630;SDS011;2837;50.990;7.124;2024-02-26T15:43:50;160.27;;;11.10;;
5630;SDS011;2837;50.990;7.124;2024-02-26T15:46:16;160.30;;;11.18;;
5630;SDS011;2837;50.990;7.124;2024-02-26T15:48:43;160.13;;;11.30;;
5630;SDS011;2837;50.990;7.124;2024-02-26T15:51:17;161.00;;;11.70;;
5630;SDS011;2837;50.990;7.124;2024-02-26T15:53:44;160.23;;;11.30;;
5630;SDS011;2837;50.990;7.124;2024-02-26T15:56:10;160.30;;;11.13;;
5630;SDS011;2837;50.990;7.124;2024-02-26T15:58:36;158.80;;;10.50;;
5630;SDS011;2837;50.990;7.124;2024-02-26T16:01:03;160.88;;;12.25;;
5630;SDS011;2837;50.990;7.124;2024-02-26T16:03:28;161.00;;;12.00;;
5630;SDS011;2837;50.990;7.124;2024-02-26T16:05:54;163.27;;;12.30;;
5630;SDS011;2837;50.990;7.124;2024-02-26T16:08:21;161.30;;;12.57;;
5630;SDS011;2837;50.990;7.124;2024-02-26T16:10:47;160.33;;;11.67;;
5630;SDS011;2837;50.990;7.124;2024-02-26T16:13:13;161.33;;;11.33;;
5630;SDS011;2837;50.990;7.124;2024-02-26T16:15:44;160.40;;;10.88;;
5630;SDS011;2837;50.990;7.124;2024-02-26T16:18:10;159.70;;;11.20;;
5630;SDS011;2837;50.990;7.124;2024-02-26T16:20:36;160.25;;;11.00;;
5630;SDS011;2837;50.990;7.124;2024-02-26T16:23:03;159.07;;;10.45;;
5630;SDS011;2837;50.990;7.124;2024-02-26T16:25:31;158.93;;;10.50;;
5630;SDS011;2837;50.990;7.124;2024-02-26T16:27:57;159.35;;;10.13;;
5630;SDS011;2837;50.990;7.124;2024-02-26T16:30:23;159.02;;;10.30;;
5630;SDS011;2837;50.990;7.124;2024-02-26T16:32:49;159.00;;;10.32;;
5630;SDS011;2837;50.990;7.124;2024-02-26T16:35:15;158.07;;;9.90;;
5630;SDS011;2837;50.990;7.124;2024-02-26T16:37:41;160.43;;;10.60;;
5630;SDS011;2837;50.990;7.124;2024-02-26T16:40:07;159.70;;;10.40;;
5630;SDS011;2837;50.990;7.124;2024-02-26T16:42:36;158.52;;;10.30;;
5630;SDS011;2837;50.990;7.124;2024-02-26T16:45:03;159.00;;;10.25;;
5630;SDS011;2837;50.990;7.124;2024-02-26T16:47:32;158.50;;;9.80;;
5630;SDS011;2837;50.990;7.124;2024-02-26T16:49:58;159.05;;;10.32;;
5630;SDS011;2837;50.990;7.124;2024-02-26T16:52:24;160.18;;;10.43;;
5630;SDS011;2837;50.990;7.124;2024-02-26T16:54:50;158.07;;;9.75;;
5630;SDS011;2837;50.990;7.124;2024-02-26T16:57:16;160.00;;;10.90;;
5630;SDS011;2837;50.990;7.124;2024-02-26T16:59:42;159.55;;;10.70;;
5630;SDS011;2837;50.990;7.124;2024-02-26T17:02:08;159.90;;;10.30;;
5630;SDS011;2837;50.990;7.124;2024-02-26T17:04:34;160.40;;;11.52;;
5630;SDS011;2837;50.990;7.124;2024-02-26T17:07:00;159.57;;;10.63;;
5630;SDS011;2837;50.990;7.124;2024-02-26T17:09:26;160.40;;;10.90;;
5630;SDS011;2837;50.990;7.124;2024-02-26T17:11:52;160.50;;;10.45;;
5630;SDS011;2837;50.990;7.124;2024-02-26T17:14:21;161.27;;;11.00;;
5630;SDS011;2837;50.990;7.124;2024-02-26T17:16:50;160.13;;;10.93;;
5630;SDS011;2837;50.990;7.124;2024-02-26T17:19:16;160.85;;;11.23;;
5630;SDS011;2837;50.990;7.124;2024-02-26T17:21:42;159.38;;;10.70;;
5630;SDS011;2837;50.990;7.124;2024-02-26T17:24:08;159.77;;;10.82;;
5630;SDS011;2837;50.990;7.124;2024-02-26T17:26:34;160.48;;;10.90;;
5630;SDS011;2837;50.990;7.124;2024-02-26T17:29:01;160.00;;;10.73;;
5630;SDS011;2837;50.990;7.124;2024-02-26T17:31:28;161.15;;;11.13;;
5630;SDS011;2837;50.990;7.124;2024-02-26T17:33:59;159.48;;;10.18;;
5630;SDS011;2837;50.990;7.124;2024-02-26T17:36:25;159.90;;;11.20;;
5630;SDS011;2837;50.990;7.124;2024-02-26T17:38:51;161.43;;;10.90;;
5630;SDS011;2837;50.990;7.124;2024-02-26T17:41:17;159.73;;;10.77;;
5630;SDS011;2837;50.990;7.124;2024-02-26T17:43:43;162.43;;;11.52;;
5630;SDS011;2837;50.990;7.124;2024-02-26T17:46:09;161.48;;;11.43;;
5630;SDS011;2837;50.990;7.124;2024-02-26T17:48:35;161.38;;;11.18;;
5630;SDS011;2837;50.990;7.124;2024-02-26T17:51:00;162.30;;;11.50;;
5630;SDS011;2837;50.990;7.124;2024-02-26T17:53:26;164.30;;;10.85;;
5630;SDS011;2837;50.990;7.124;2024-02-26T17:55:52;161.05;;;10.90;;
5630;SDS011;2837;50.990;7.124;2024-02-26T17:58:21;161.50;;;11.40;;
5630;SDS011;2837;50.990;7.124;2024-02-26T18:00:47;160.20;;;11.02;;
5630;SDS011;2837;50.990;7.124;2024-02-26T18:03:14;160.18;;;10.23;;
5630;SDS011;2837;50.990;7.124;2024-02-26T18:05:41;160.30;;;10.30;;
5630;SDS011;2837;50.990;7.124;2024-02-26T18:08:07;159.97;;;10.23;;
5630;SDS011;2837;50.990;7.124;2024-02-26T18:10:33;158.80;;;10.20;;
5630;SDS011;2837;50.990;7.124;2024-02-26T18:12:59;159.70;;;10.77;;
5630;SDS011;2837;50.990;7.124;2024-02-26T18:15:26;159.43;;;9.43;;
5630;SDS011;2837;50.990;7.124;2024-02-26T18:17:52;160.85;;;10.00;;
5630;SDS011;2837;50.990;7.124;2024-02-26T18:20:18;160.15;;;10.30;;
5630;SDS011;2837;50.990;7.124;2024-02-26T18:22:44;160.68;;;10.00;;
5630;SDS011;2837;50.990;7.124;2024-02-26T18:25:11;159.48;;;10.15;;
5630;SDS011;2837;50.990;7.124;2024-02-26T18:27:37;166.02;;;10.40;;
5630;SDS011;2837;50.990;7.124;2024-02-26T18:30:04;162.25;;;10.07;;
5630;SDS011;2837;50.990;7.124;2024-02-26T18:32:31;159.65;;;10.02;;
5630;SDS011;2837;50.990;7.124;2024-02-26T18:34:58;160.82;;;10.70;;
5630;SDS011;2837;50.990;7.124;2024-02-26T18:37:24;163.00;;;10.70;;
5630;SDS011;2837;50.990;7.124;2024-02-26T18:39:50;159.40;;;9.80;;
5630;SDS011;2837;50.990;7.124;2024-02-26T18:42:16;159.67;;;9.90;;
5630;SDS011;2837;50.990;7.124;2024-02-26T18:44:43;161.73;;;9.63;;
5630;SDS011;2837;50.990;7.124;2024-02-26T18:47:09;160.95;;;10.60;;
5630;SDS011;2837;50.990;7.124;2024-02-26T18:49:38;160.15;;;9.88;;
5630;SDS011;2837;50.990;7.124;2024-02-26T18:52:04;162.02;;;11.65;;
5630;SDS011;2837;50.990;7.124;2024-02-26T18:54:30;162.93;;;11.30;;
5630;SDS011;2837;50.990;7.124;2024-02-26T18:56:56;159.20;;;9.40;;
5630;SDS011;2837;50.990;7.124;2024-02-26T18:59:22;160.65;;;10.65;;
5630;SDS011;2837;50.990;7.124;2024-02-26T19:01:49;159.77;;;10.15;;
5630;SDS011;2837;50.990;7.124;2024-02-26T19:04:15;160.50;;;10.80;;
5630;SDS011;2837;50.990;7.124;2024-02-26T19:06:43;159.27;;;9.90;;
5630;SDS011;2837;50.990;7.124;2024-02-26T19:09:12;161.80;;;10.60;;
5630;SDS011;2837;50.990;7.124;2024-02-26T19:11:44;159.73;;;10.10;;
5630;SDS011;2837;50.990;7.124;2024-02-26T19:14:10;161.02;;;10.02;;
5630;SDS011;2837;50.990;7.124;2024-02-26T19:16:36;160.32;;;10.27;;
5630;SDS011;2837;50.990;7.124;2024-02-26T19:19:04;161.35;;;10.07;;
5630;SDS011;2837;50.990;7.124;2024-02-26T19:21:32;160.00;;;10.00;;
5630;SDS011;2837;50.990;7.124;2024-02-26T19:23:58;159.32;;;10.00;;
5630;SDS011;2837;50.990;7.124;2024-02-26T19:26:24;161.43;;;10.48;;
5630;SDS011;2837;50.990;7.124;2024-02-26T19:28:49;160.50;;;10.52;;
5630;SDS011;2837;50.990;7.124;2024-02-26T19:31:15;160.20;;;10.10;;
5630;SDS011;2837;50.990;7.124;2024-02-26T19:33:41;161.23;;;9.73;;
5630;SDS011;2837;50.990;7.124;2024-02-26T19:36:07;160.37;;;10.70;;
5630;SDS011;2837;50.990;7.124;2024-02-26T19:38:33;160.30;;;10.60;;
5630;SDS011;2837;50.990;7.124;2024-02-26T19:40:59;160.80;;;10.48;;
5630;SDS011;2837;50.990;7.124;2024-02-26T19:43:25;160.00;;;10.20;;
5630;SDS011;2837;50.990;7.124;2024-02-26T19:45:51;160.20;;;10.02;;
5630;SDS011;2837;50.990;7.124;2024-02-26T19:48:18;159.40;;;9.82;;
5630;SDS011;2837;50.990;7.124;2024-02-26T19:50:43;160.30;;;9.90;;
5630;SDS011;2837;50.990;7.124;2024-02-26T19:53:10;160.32;;;10.32;;
5630;SDS011;2837;50.990;7.124;2024-02-26T19:55:36;160.00;;;9.90;;
5630;SDS011;2837;50.990;7.124;2024-02-26T19:58:03;160.30;;;10.23;;
5630;SDS011;2837;50.990;7.124;2024-02-26T20:00:29;160.63;;;9.60;;
5630;SDS011;2837;50.990;7.124;2024-02-26T20:02:55;159.63;;;10.07;;
5630;SDS011;2837;50.990;7.124;2024-02-26T20:05:21;160.03;;;10.00;;
5630;SDS011;2837;50.990;7.124;2024-02-26T20:07:46;161.20;;;10.30;;
5630;SDS011;2837;50.990;7.124;2024-02-26T20:10:12;160.00;;;10.03;;
5630;SDS011;2837;50.990;7.124;2024-02-26T20:12:38;159.77;;;10.00;;
5630;SDS011;2837;50.990;7.124;2024-02-26T20:15:04;159.98;;;9.90;;
5630;SDS011;2837;50.990;7.124;2024-02-26T20:17:30;160.20;;;10.10;;
5630;SDS011;2837;50.990;7.124;2024-02-26T20:19:56;161.45;;;10.45;;
5630;SDS011;2837;50.990;7.124;2024-02-26T20:22:22;159.98;;;10.07;;
5630;SDS011;2837;50.990;7.124;2024-02-26T20:24:48;159.70;;;9.85;;
5630;SDS011;2837;50.990;7.124;2024-02-26T20:27:14;159.52;;;9.68;;
5630;SDS011;2837;50.990;7.124;2024-02-26T20:29:42;160.02;;;10.45;;
5630;SDS011;2837;50.990;7.124;2024-02-26T20:32:07;159.90;;;9.93;;
5630;SDS011;2837;50.990;7.124;2024-02-26T20:34:33;161.23;;;10.37;;
5630;SDS011;2837;50.990;7.124;2024-02-26T20:36:59;160.95;;;9.90;;
5630;SDS011;2837;50.990;7.124;2024-02-26T20:39:28;160.10;;;10.00;;
5630;SDS011;2837;50.990;7.124;2024-02-26T20:41:54;159.97;;;9.40;;
5630;SDS011;2837;50.990;7.124;2024-02-26T20:44:20;159.85;;;10.05;;
5630;SDS011;2837;50.990;7.124;2024-02-26T20:46:46;161.90;;;9.50;;
5630;SDS011;2837;50.990;7.124;2024-02-26T20:49:12;160.70;;;9.30;;